Terminal Aerodrome Forecast
Issued by NWS

Home | Current Version | Previous Version | Text Only | Print | Product List | Glossary On
Versions: 1 2 3 4 5 6 7 8 9 10 11 12 13 14 15 16 17 18 19 20
000
FTUS43 KICT 020536
TAFHUT
TAF
KHUT 020536Z 0206/0306 VRB03KT 6SM BR SCT250
     FM020900 VRB03KT 4SM BR SCT012 BKN250
     FM021500 12009KT P6SM SCT020 OVC250
     FM022100 16014KT P6SM OVC025
     FM030000 17016G23KT 5SM BR OVC020=

USA.gov is the U.S. government's official web portal to all federal, state and local government web resources and services.